Terminal Aerodrome Forecast
Issued by NWS

Home | Current Version | Previous Version | Text Only | Print | Product List | Glossary On
Versions: 1 2 3 4 5 6 7 8 9 10 11 12 13 14 15 16 17
000
FTUS43 KGRB 211509 AAB
TAFATW
TAF AMD
KATW 211509Z 2115/2212 32009G15KT P6SM SCT025 BKN035
      TEMPO 2115/2117 -RA BKN025
     FM211700 30011G18KT P6SM BKN035
     FM212300 29006KT P6SM SCT040
     FM220300 VRB02KT P6SM SKC=

USA.gov is the U.S. government's official web portal to all federal, state and local government web resources and services.